This is the latest recevied weather packets stored in our database for station/object KC4GS-13. If no packets are shown the sender has not sent any weather packets the latest 10 day(s).
| Time | Temp. | Humidity | Pressure | Rain* | Wind** | Luminosity | Snow |
|---|---|---|---|---|---|---|---|
| 1787865655 | 27.78° C | 82% | 1015.4 hPa | 0 mm | - | 65 W/m² | - |
| 1787865354 | 27.78° C | 81% | 1015.4 hPa | 0 mm | - | 62 W/m² | - |
| 1787865049 | 27.78° C | 80% | 1015.4 hPa | 0 mm | - | 51 W/m² | - |
| 1787864745 | 28.33° C | 79% | 1015.4 hPa | 0 mm | - | 51 W/m² | - |
| 1787864444 | 28.33° C | 78% | 1015.4 hPa | 0 mm | - | 90 W/m² | - |
| 1787864144 | 28.89° C | 78% | 1015.2 hPa | 0 mm | - | 489 W/m² | - |
| 1787863838 | 27.78° C | 81% | 1015 hPa | 0 mm | - | 361 W/m² | - |
| 1787863536 | 27.78° C | 83% | 1015.4 hPa | 0 mm | - | 338 W/m² | - |
| 1787863232 | 27.78° C | 82% | 1015.3 hPa | 0 mm | - | 375 W/m² | - |
| 1787862927 | 27.22° C | 83% | 1015.2 hPa | 0 mm | - | 231 W/m² | - |
| 1787862623 | 26.11° C | 85% | 1015.2 hPa | 0 mm | - | 195 W/m² | - |
| 1787862318 | 25.56° C | 90% | 1015.1 hPa | 0 mm | - | 693 W/m² | - |
| 1787862014 | 25° C | 93% | 1015.3 hPa | 0 mm | - | 629 W/m² | - |
| 1787861713 | 25° C | 95% | 1015.3 hPa | 0 mm | - | 436 W/m² | - |
| 1787861411 | 24.44° C | 95% | 1015.8 hPa | 0 mm | - | 598 W/m² | - |
| 1787861106 | 24.44° C | 96% | 1015.8 hPa | 0 mm | - | 507 W/m² | - |
| 1787860805 | 24.44° C | 97% | 1016.2 hPa | 0 mm | - | 237 W/m² | - |
| 1787860499 | 23.89° C | 96% | 1015.8 hPa | 0 mm | - | 190 W/m² | - |
| 1787860194 | 23.89° C | 97% | 1016.2 hPa | 0 mm | - | 173 W/m² | - |
| 1787859890 | 23.89° C | 96% | 1016 hPa | 0 mm | - | 138 W/m² | - |
| 1787859585 | 23.89° C | 97% | 1016.3 hPa | 0 mm | - | 120 W/m² | - |
| 1787859279 | 23.89° C | 97% | 1016.5 hPa | 0 mm | - | 127 W/m² | - |
| 1787858976 | 23.89° C | 96% | 1016.7 hPa | 0 mm | - | 109 W/m² | - |
| 1787858671 | 23.33° C | 96% | 1016.8 hPa | 0 mm | - | 109 W/m² | - |
| 1787858366 | 23.33° C | 96% | 1017 hPa | 0 mm | - | 120 W/m² | - |
* Rain latest hour (hover to see other rain measurements)
** Current wind speed in m/s (hover to see current wind gust speed)